Latest Coastal Weather Observations for Point Fawcett

IDD60701

Issued at 11:21 am CST Friday 9 December 2016 (issued every 10 minutes, with the page automatically refreshed every 10 minutes)

About coastal observations | Map of coastal stations | Coastal observations for NT | Marine services | Other Formats
Station Details ID: 200731 Name: POINT FAWCETT Lat: -11.76 Lon: 130.03 Height: 6.5 m
Data from the previous 72 hours. | See also: Recent months at Point Fawcett
Date/Time
CST
Temp
°C
Wind Pressure Rain since
9am
mm
Weather Cloud Vis
km
Sea
Height
m
Swell
Dir  Spd
kts
Gust
kts
hPa Trend Height
m
Period
s
Dir
09/11:00am 32.4 NW 4 6 1008.5 - 0.0 - - - - - - -
09/10:30am 33.1 NW 5 7 1008.4 - 0.0 - - - - - - -
09/10:00am 32.6 NW 4 6 1008.4 - 0.0 - - - - - - -
09/09:30am 31.9 NW 4 5 1008.3 - 0.0 - - - - - - -
09/09:00am 31.9 CALM 0 3 1008.1 - 0.0 - - - - - - -
09/08:30am 31.0 N 3 5 1008.2 - 0.0 - - - - - - -
09/08:00am 29.6 CALM 0 3 1008.1 - 0.0 - - - - - - -
09/07:30am 28.1 SE 3 4 1007.9 - 0.0 - - - - - - -
09/07:00am 27.3 E 4 5 1007.4 - 0.0 - - - - - - -
09/06:30am 26.6 ESE 4 5 1007.0 - 0.0 - - - - - - -
09/06:00am 26.6 ESE 4 4 1006.5 - 0.0 - - - - - - -
09/05:30am 27.0 SE 3 5 1006.3 - 0.0 - - - - - - -
09/05:00am 28.2 SE 1 4 1006.1 - 0.0 - - - - - - -
09/04:30am 29.8 N 5 7 1005.9 - 0.0 - - - - - - -
09/04:00am 29.9 N 5 7 1005.9 - 0.0 - - - - - - -
09/03:30am 29.7 W 5 7 1005.8 - 0.0 - - - - - - -
09/03:00am 30.1 WNW 6 8 1005.9 - 0.0 - - - - - - -
09/02:30am 29.9 NW 7 9 1006.0 - 0.0 - - - - - - -
09/02:00am 29.9 NW 6 8 1006.1 - 0.0 - - - - - - -
09/01:30am 29.9 NNW 4 6 1006.7 - 0.0 - - - - - - -
09/01:00am 30.0 NW 7 9 1006.6 - 0.0 - - - - - - -
09/12:30am 30.1 WNW 7 9 1006.6 - 0.0 - - - - - - -
09/12:00am 30.2 NW 8 11 1006.6 - 0.0 - - - - - - -
 
Date/Time
CST
Temp
°C
Wind Pressure Rain since
9am
mm
Weather Cloud Vis
km
Sea
Height
m
Swell
Dir  Spd
kts
Gust
kts
hPa Trend Height
m
Period
s
Dir
08/11:30pm 30.1 WNW 8 10 1006.6 - 0.0 - - - - - - -
08/11:00pm 30.1 NW 7 9 1006.6 - 0.0 - - - - - - -
08/10:30pm 30.2 WNW 7 8 1006.6 - 0.0 - - - - - - -
08/10:00pm 29.7 WNW 4 6 1006.8 - 0.0 - - - - - - -
08/09:30pm 30.3 WNW 7 9 1006.5 - 0.0 - - - - - - -
08/09:00pm 30.4 W 6 8 1006.2 - 0.0 - - - - - - -
08/08:30pm 30.4 W 8 10 1006.1 - 0.0 - - - - - - -
08/08:00pm 30.1 W 6 7 1005.7 - 0.0 - - - - - - -
08/07:30pm 30.4 W 6 9 1005.5 - 0.0 - - - - - - -
08/07:00pm 30.7 W 6 8 1005.2 - 0.0 - - - - - - -
08/06:30pm 31.5 W 6 8 1004.9 - 0.0 - - - - - - -
08/06:00pm 32.2 W 6 8 1004.5 - 0.0 - - - - - - -
08/05:30pm 32.4 W 7 9 1004.6 - 0.0 - - - - - - -
08/05:00pm 32.7 W 7 10 1004.8 - 0.0 - - - - - - -
08/04:30pm 32.8 NW 8 11 1004.4 - 0.0 - - - - - - -
08/04:00pm 32.7 W 7 10 1004.5 - 0.0 - - - - - - -
08/03:30pm 32.9 WNW 8 11 1004.7 - 0.0 - - - - - - -
08/03:00pm 33.7 W 8 10 1004.8 - 0.0 - - - - - - -
08/02:30pm 33.4 W 9 11 1005.2 - 0.0 - - - - - - -
08/02:00pm 33.2 W 7 9 1005.6 - 0.0 - - - - - - -
08/01:30pm 33.2 WNW 6 8 1005.8 - 0.0 - - - - - - -
08/01:00pm 33.2 WNW 5 7 1006.1 - 0.0 - - - - - - -
08/12:30pm 32.9 NW 5 7 1006.6 - 0.0 - - - - - - -
08/12:00pm 33.1 NNW 6 8 1006.9 - 0.0 - - - - - - -
08/11:30am 33.4 N 5 8 1007.4 - 0.0 - - - - - - -
08/11:00am 33.0 N 5 7 1007.9 - 0.0 - - - - - - -
08/10:30am 32.3 N 5 7 1008.2 - 0.0 - - - - - - -
08/10:00am 31.7 NNE 5 6 1008.3 - 0.0 - - - - - - -
08/09:30am 31.2 NE 5 7 1008.3 - 0.0 - - - - - - -
08/09:00am 31.5 NNE 7 9 1008.1 - 0.0 - - - - - - -
08/08:30am 30.3 NE 6 9 1008.2 - 0.0 - - - - - - -
08/08:00am 28.1 NE 4 6 1007.8 - 0.0 - - - - - - -
08/07:30am 26.8 ESE 3 4 1007.7 - 0.0 - - - - - - -
08/07:00am 26.4 E 3 4 1007.1 - 0.0 - - - - - - -
08/06:30am 26.2 E 5 6 1007.0 - 0.0 - - - - - - -
08/06:00am 27.3 NNW 5 7 1006.3 - 0.0 - - - - - - -
08/05:30am 29.2 NW 6 7 1006.1 - 0.0 - - - - - - -
08/05:00am 29.2 NW 6 8 1005.7 - 0.0 - - - - - - -
08/04:30am 29.5 WNW 7 8 1005.6 - 0.0 - - - - - - -
08/04:00am 29.6 NW 7 9 1005.5 - 0.0 - - - - - - -
08/03:30am 29.8 WNW 8 10 1005.6 - 0.0 - - - - - - -
08/03:00am 29.7 W 8 11 1005.6 - 0.0 - - - - - - -
08/02:30am 29.8 WNW 8 9 1005.9 - 0.0 - - - - - - -
08/02:00am 29.4 W 6 8 1006.1 - 0.0 - - - - - - -
08/01:30am 29.3 W 6 8 1006.3 - 0.0 - - - - - - -
08/01:00am 29.5 W 6 9 1006.9 - 0.0 - - - - - - -
08/12:30am 28.8 W 6 9 1007.3 - 0.0 - - - - - - -
08/12:00am 28.1 WNW 6 8 1007.5 - 0.0 - - - - - - -
 
Date/Time
CST
Temp
°C
Wind Pressure Rain since
9am
mm
Weather Cloud Vis
km
Sea
Height
m
Swell
Dir  Spd
kts
Gust
kts
hPa Trend Height
m
Period
s
Dir
07/11:30pm 26.1 WNW 3 6 1007.7 - 0.0 - - - - - - -
07/11:00pm 26.3 ESE 2 3 1008.0 - 0.0 - - - - - - -
07/10:30pm 26.2 E 3 4 1008.0 - 0.0 - - - - - - -
07/10:00pm 26.4 E 3 4 1007.9 - 0.0 - - - - - - -
07/09:30pm 26.7 SE 3 4 1007.5 - 0.0 - - - - - - -
07/09:00pm 27.1 SE 3 4 1007.0 - 0.0 - - - - - - -
07/08:30pm 27.5 SE 3 4 1006.9 - 0.0 - - - - - - -
07/08:00pm 28.1 SE 3 4 1006.7 - 0.0 - - - - - - -
07/07:30pm 29.1 SSE 3 4 1006.5 - 0.0 - - - - - - -
07/07:00pm 30.8 WSW 4 6 1006.3 - 0.0 - - - - - - -
07/06:30pm 31.4 WSW 5 8 1006.1 - 0.0 - - - - - - -
07/06:00pm 32.2 SW 5 8 1005.8 - 0.0 - - - - - - -
07/05:30pm 32.5 SW 6 8 1005.6 - 0.0 - - - - - - -
07/05:00pm 33.0 SW 6 9 1005.2 - 0.0 - - - - - - -
07/04:30pm 33.2 SW 7 10 1005.2 - 0.0 - - - - - - -
07/04:00pm 33.6 SW 7 10 1005.5 - 0.0 - - - - - - -
07/03:30pm 33.1 WSW 7 10 1005.9 - 0.0 - - - - - - -
07/03:00pm 33.7 WSW 6 9 1005.8 - 0.0 - - - - - - -
07/02:30pm 33.6 WSW 7 9 1006.5 - 0.0 - - - - - - -
07/02:00pm 34.0 WSW 6 9 1006.8 - 0.0 - - - - - - -
07/01:30pm 33.6 SW 7 11 1007.0 - 0.0 - - - - - - -
07/01:00pm 33.1 WSW 6 11 1007.5 - 0.0 - - - - - - -
07/12:30pm 33.4 SW 7 10 1007.8 - 0.0 - - - - - - -
07/12:00pm 32.9 SW 5 8 1008.2 - 0.0 - - - - - - -
07/11:30am 32.0 SW 6 10 1008.7 - 0.0 - - - - - - -
07/11:00am 31.1 WSW 4 6 1009.1 - 0.0 - - - - - - -
07/10:30am 31.1 WSW 3 5 1009.4 - 0.0 - - - - - - -
07/10:00am 32.1 NW 5 6 1009.3 - 0.0 - - - - - - -
07/09:30am 32.0 N 4 6 1009.5 - 0.0 - - - - - - -
07/09:00am 31.6 NNE 2 5 1009.5 - 3.6 - - - - - - -
07/08:30am 30.8 SW 2 4 1009.4 - 3.6 - - - - - - -
07/08:00am 29.7 W 4 5 1009.4 - 3.6 - - - - - - -
07/07:30am 27.9 CALM 0 0 1009.3 - 3.6 - - - - - - -
07/07:00am 26.7 CALM 0 0 1009.2 - 3.6 - - - - - - -
07/06:30am 26.0 CALM 0 0 1008.7 - 3.6 - - - - - - -
07/06:00am 26.0 CALM 0 0 1008.1 - 3.6 - - - - - - -
07/05:30am 25.9 W 1 4 1008.0 - 3.6 - - - - - - -
07/05:00am 26.7 W 5 7 1007.9 - 3.6 - - - - - - -
07/04:30am 25.8 W 5 7 1007.5 - 3.6 - - - - - - -
07/04:00am 26.1 W 4 7 1007.3 - 3.6 - - - - - - -
07/03:30am 27.0 W 6 7 1007.4 - 3.6 - - - - - - -
07/03:00am 26.7 W 6 8 1007.4 - 3.6 - - - - - - -
07/02:30am 25.5 SW 2 5 1007.5 - 3.6 - - - - - - -
07/02:00am 25.5 SW 2 3 1007.7 - 3.6 - - - - - - -
07/01:30am 25.6 SW 1 4 1008.1 - 3.6 - - - - - - -
07/01:00am 25.7 W 3 5 1008.5 - 3.6 - - - - - - -
07/12:30am 25.8 SW 1 4 1008.8 - 3.6 - - - - - - -
07/12:00am 25.9 SSW 2 3 1009.1 - 3.6 - - - - - - -
 
Date/Time
CST
Temp
°C
Wind Pressure Rain since
9am
mm
Weather Cloud Vis
km
Sea
Height
m
Swell
Dir  Spd
kts
Gust
kts
hPa Trend Height
m
Period
s
Dir
06/11:30pm 26.2 CALM 0 2 1009.3 - 3.6 - - - - - - -
06/11:00pm 26.9 CALM 0 3 1009.3 - 3.6 - - - - - - -
06/10:30pm 28.1 WNW 4 6 1009.4 - 3.6 - - - - - - -
06/10:00pm 28.3 NW 5 7 1009.4 - 3.6 - - - - - - -
06/09:30pm 28.4 NW 6 8 1009.3 - 3.6 - - - - - - -
06/09:00pm 28.5 NNW 6 7 1009.0 - 3.6 - - - - - - -
06/08:30pm 28.4 N 5 7 1008.6 - 3.6 - - - - - - -
06/08:00pm 28.5 N 6 8 1008.1 - 3.6 - - - - - - -
06/07:30pm 27.5 N 2 6 1007.5 - 3.6 - - - - - - -
06/07:00pm 28.4 N 5 8 1006.8 - 3.6 - - - - - - -
06/06:30pm 28.9 NE 4 5 1006.9 - 3.6 - - - - - - -
06/06:00pm 29.2 NNE 9 16 1006.9 - 3.6 - - - - - - -
06/05:30pm 31.0 NW 4 6 1006.5 - 3.6 - - - - - - -
06/05:00pm 31.6 W 5 7 1006.2 - 3.6 - - - - - - -
06/04:30pm 30.8 W 6 8 1006.2 - 3.6 - - - - - - -
06/04:00pm 30.8 WSW 6 8 1006.5 - 3.6 - - - - - - -
06/03:30pm 29.9 SW 4 8 1006.9 - 3.6 - - - - - - -
06/03:00pm 30.5 SW 4 7 1007.2 - 3.2 - - - - - - -
06/02:30pm 30.8 WSW 6 8 1007.6 - 3.2 - - - - - - -
06/02:00pm 31.7 SW 6 9 1008.0 - 3.2 - - - - - - -
06/01:30pm 32.0 WSW 6 8 1008.2 - 3.2 - - - - - - -
06/01:00pm 30.8 SSW 4 5 1008.6 - 3.2 - - - - - - -
06/12:30pm 29.8 S 3 5 1009.1 - 3.2 - - - - - - -
06/12:00pm 31.6 WSW 5 8 1009.4 - 2.2 - - - - - - -
06/11:30am 30.6 WSW 5 7 1010.0 - 2.2 - - - - - - -

Other Formats:

Comma delimited format used in spreadsheet applications
http://www.bom.gov.au/fwo/IDD60701/IDD60701.94122.axf

JavaScript Object Notation format (JSON) in row-major order
http://www.bom.gov.au/fwo/IDD60701/IDD60701.94122.json